sensor_id;sensor_type;location;lat;lon;timestamp;P1;durP1;ratioP1;P2;durP2;ratioP2
12253;SDS011;6189;52.526;13.390;2023-04-24T00:00:32;4.30;;;3.90;;
12253;SDS011;6189;52.526;13.390;2023-04-24T00:03:18;4.53;;;4.10;;
12253;SDS011;6189;52.526;13.390;2023-04-24T00:06:05;4.20;;;3.80;;
12253;SDS011;6189;52.526;13.390;2023-04-24T00:08:52;3.80;;;3.50;;
12253;SDS011;6189;52.526;13.390;2023-04-24T00:11:39;4.13;;;3.77;;
12253;SDS011;6189;52.526;13.390;2023-04-24T00:14:30;4.43;;;4.00;;
12253;SDS011;6189;52.526;13.390;2023-04-24T00:17:16;4.77;;;4.30;;
12253;SDS011;6189;52.526;13.390;2023-04-24T00:20:04;4.53;;;3.80;;
12253;SDS011;6189;52.526;13.390;2023-04-24T00:22:51;3.67;;;3.37;;
12253;SDS011;6189;52.526;13.390;2023-04-24T00:25:36;5.47;;;4.33;;
12253;SDS011;6189;52.526;13.390;2023-04-24T00:28:25;4.10;;;3.70;;
12253;SDS011;6189;52.526;13.390;2023-04-24T00:31:10;4.33;;;3.93;;
12253;SDS011;6189;52.526;13.390;2023-04-24T00:34:04;4.53;;;4.13;;
12253;SDS011;6189;52.526;13.390;2023-04-24T00:36:50;4.83;;;4.10;;
12253;SDS011;6189;52.526;13.390;2023-04-24T00:39:36;5.07;;;4.40;;
12253;SDS011;6189;52.526;13.390;2023-04-24T00:42:22;4.50;;;4.10;;
12253;SDS011;6189;52.526;13.390;2023-04-24T00:45:09;4.33;;;3.87;;
12253;SDS011;6189;52.526;13.390;2023-04-24T00:47:55;4.30;;;3.90;;
12253;SDS011;6189;52.526;13.390;2023-04-24T00:50:41;4.63;;;4.23;;
12253;SDS011;6189;52.526;13.390;2023-04-24T00:53:27;4.43;;;4.03;;
12253;SDS011;6189;52.526;13.390;2023-04-24T00:56:13;4.70;;;4.30;;
12253;SDS011;6189;52.526;13.390;2023-04-24T00:58:58;5.33;;;4.07;;
12253;SDS011;6189;52.526;13.390;2023-04-24T01:01:46;4.60;;;4.20;;
12253;SDS011;6189;52.526;13.390;2023-04-24T01:04:31;4.83;;;4.00;;
12253;SDS011;6189;52.526;13.390;2023-04-24T01:07:18;4.60;;;4.20;;
12253;SDS011;6189;52.526;13.390;2023-04-24T01:10:05;5.23;;;4.73;;
12253;SDS011;6189;52.526;13.390;2023-04-24T01:12:53;4.40;;;4.00;;
12253;SDS011;6189;52.526;13.390;2023-04-24T01:15:39;4.97;;;4.33;;
12253;SDS011;6189;52.526;13.390;2023-04-24T01:18:26;3.73;;;3.43;;
12253;SDS011;6189;52.526;13.390;2023-04-24T01:21:12;4.67;;;4.20;;
12253;SDS011;6189;52.526;13.390;2023-04-24T01:24:01;4.00;;;3.60;;
12253;SDS011;6189;52.526;13.390;2023-04-24T01:26:47;3.83;;;3.53;;
12253;SDS011;6189;52.526;13.390;2023-04-24T01:29:33;4.30;;;4.00;;
12253;SDS011;6189;52.526;13.390;2023-04-24T01:32:19;4.57;;;4.17;;
12253;SDS011;6189;52.526;13.390;2023-04-24T01:35:06;5.00;;;4.13;;
12253;SDS011;6189;52.526;13.390;2023-04-24T01:37:56;5.33;;;4.03;;
12253;SDS011;6189;52.526;13.390;2023-04-24T01:40:43;4.37;;;3.90;;
12253;SDS011;6189;52.526;13.390;2023-04-24T01:43:28;3.90;;;3.50;;
12253;SDS011;6189;52.526;13.390;2023-04-24T01:46:16;4.47;;;3.90;;
12253;SDS011;6189;52.526;13.390;2023-04-24T01:49:01;4.63;;;4.23;;
12253;SDS011;6189;52.526;13.390;2023-04-24T01:51:47;4.83;;;4.33;;
12253;SDS011;6189;52.526;13.390;2023-04-24T01:54:32;4.67;;;4.10;;
12253;SDS011;6189;52.526;13.390;2023-04-24T01:57:19;5.33;;;4.20;;
12253;SDS011;6189;52.526;13.390;2023-04-24T02:00:05;5.07;;;4.57;;
12253;SDS011;6189;52.526;13.390;2023-04-24T02:02:52;4.73;;;4.27;;
12253;SDS011;6189;52.526;13.390;2023-04-24T02:05:37;4.77;;;4.37;;
12253;SDS011;6189;52.526;13.390;2023-04-24T02:08:23;5.07;;;4.57;;
12253;SDS011;6189;52.526;13.390;2023-04-24T02:11:09;4.70;;;4.30;;
12253;SDS011;6189;52.526;13.390;2023-04-24T02:13:56;5.40;;;4.90;;
12253;SDS011;6189;52.526;13.390;2023-04-24T02:16:42;4.97;;;4.30;;
12253;SDS011;6189;52.526;13.390;2023-04-24T02:19:29;4.60;;;4.20;;
12253;SDS011;6189;52.526;13.390;2023-04-24T02:22:14;5.10;;;4.60;;
12253;SDS011;6189;52.526;13.390;2023-04-24T02:25:00;5.50;;;5.00;;
12253;SDS011;6189;52.526;13.390;2023-04-24T02:27:46;5.60;;;4.30;;
12253;SDS011;6189;52.526;13.390;2023-04-24T02:30:33;6.13;;;4.47;;
12253;SDS011;6189;52.526;13.390;2023-04-24T02:33:19;5.97;;;4.77;;
12253;SDS011;6189;52.526;13.390;2023-04-24T02:36:04;5.40;;;4.67;;
12253;SDS011;6189;52.526;13.390;2023-04-24T02:38:50;5.57;;;4.63;;
12253;SDS011;6189;52.526;13.390;2023-04-24T02:41:36;5.17;;;4.67;;
12253;SDS011;6189;52.526;13.390;2023-04-24T02:44:22;5.37;;;4.87;;
12253;SDS011;6189;52.526;13.390;2023-04-24T02:47:09;5.23;;;4.47;;
12253;SDS011;6189;52.526;13.390;2023-04-24T02:49:54;5.10;;;4.60;;
12253;SDS011;6189;52.526;13.390;2023-04-24T02:52:40;5.80;;;5.17;;
12253;SDS011;6189;52.526;13.390;2023-04-24T02:55:26;5.57;;;5.07;;
12253;SDS011;6189;52.526;13.390;2023-04-24T02:58:11;6.20;;;5.60;;
12253;SDS011;6189;52.526;13.390;2023-04-24T03:00:57;6.47;;;4.90;;
12253;SDS011;6189;52.526;13.390;2023-04-24T03:03:45;7.53;;;5.37;;
12253;SDS011;6189;52.526;13.390;2023-04-24T03:06:30;6.17;;;4.73;;
12253;SDS011;6189;52.526;13.390;2023-04-24T03:09:16;5.13;;;4.60;;
12253;SDS011;6189;52.526;13.390;2023-04-24T03:12:02;5.93;;;4.97;;
12253;SDS011;6189;52.526;13.390;2023-04-24T03:14:47;5.47;;;4.97;;
12253;SDS011;6189;52.526;13.390;2023-04-24T03:17:33;5.33;;;4.83;;
12253;SDS011;6189;52.526;13.390;2023-04-24T03:20:21;5.20;;;4.77;;
12253;SDS011;6189;52.526;13.390;2023-04-24T03:23:06;5.70;;;5.20;;
12253;SDS011;6189;52.526;13.390;2023-04-24T03:25:52;5.23;;;4.73;;
12253;SDS011;6189;52.526;13.390;2023-04-24T03:28:38;5.80;;;5.20;;
12253;SDS011;6189;52.526;13.390;2023-04-24T03:31:24;5.93;;;4.67;;
12253;SDS011;6189;52.526;13.390;2023-04-24T03:34:10;5.60;;;5.00;;
12253;SDS011;6189;52.526;13.390;2023-04-24T03:36:57;5.73;;;5.13;;
12253;SDS011;6189;52.526;13.390;2023-04-24T03:39:42;5.57;;;5.07;;
12253;SDS011;6189;52.526;13.390;2023-04-24T03:42:28;6.03;;;4.97;;
12253;SDS011;6189;52.526;13.390;2023-04-24T03:45:14;5.87;;;5.10;;
12253;SDS011;6189;52.526;13.390;2023-04-24T03:48:00;4.93;;;4.53;;
12253;SDS011;6189;52.526;13.390;2023-04-24T03:50:46;5.43;;;4.80;;
12253;SDS011;6189;52.526;13.390;2023-04-24T03:53:33;5.77;;;5.23;;
12253;SDS011;6189;52.526;13.390;2023-04-24T03:56:18;8.20;;;5.63;;
12253;SDS011;6189;52.526;13.390;2023-04-24T03:59:05;7.30;;;5.47;;
12253;SDS011;6189;52.526;13.390;2023-04-24T04:01:50;5.40;;;4.90;;
12253;SDS011;6189;52.526;13.390;2023-04-24T04:04:36;5.77;;;5.27;;
12253;SDS011;6189;52.526;13.390;2023-04-24T04:07:22;6.87;;;5.10;;
12253;SDS011;6189;52.526;13.390;2023-04-24T04:10:09;5.30;;;4.80;;
12253;SDS011;6189;52.526;13.390;2023-04-24T04:12:55;6.67;;;4.83;;
12253;SDS011;6189;52.526;13.390;2023-04-24T04:15:41;5.63;;;4.93;;
12253;SDS011;6189;52.526;13.390;2023-04-24T04:18:27;5.43;;;4.80;;
12253;SDS011;6189;52.526;13.390;2023-04-24T04:21:13;5.23;;;4.73;;
12253;SDS011;6189;52.526;13.390;2023-04-24T04:23:59;5.63;;;4.97;;
12253;SDS011;6189;52.526;13.390;2023-04-24T04:26:46;6.30;;;5.17;;
12253;SDS011;6189;52.526;13.390;2023-04-24T04:29:34;5.53;;;4.30;;
12253;SDS011;6189;52.526;13.390;2023-04-24T04:32:20;5.17;;;4.67;;
12253;SDS011;6189;52.526;13.390;2023-04-24T04:35:06;10.27;;;4.87;;
12253;SDS011;6189;52.526;13.390;2023-04-24T04:37:53;7.13;;;5.10;;
12253;SDS011;6189;52.526;13.390;2023-04-24T04:40:40;6.70;;;4.60;;
12253;SDS011;6189;52.526;13.390;2023-04-24T04:43:27;6.80;;;4.70;;
12253;SDS011;6189;52.526;13.390;2023-04-24T04:46:12;5.73;;;4.73;;
12253;SDS011;6189;52.526;13.390;2023-04-24T04:48:58;8.30;;;4.87;;
12253;SDS011;6189;52.526;13.390;2023-04-24T04:51:45;8.27;;;5.40;;
12253;SDS011;6189;52.526;13.390;2023-04-24T04:54:30;13.80;;;5.47;;
12253;SDS011;6189;52.526;13.390;2023-04-24T04:57:16;5.63;;;5.07;;
12253;SDS011;6189;52.526;13.390;2023-04-24T05:00:04;5.07;;;4.60;;
12253;SDS011;6189;52.526;13.390;2023-04-24T05:02:54;7.57;;;4.80;;
12253;SDS011;6189;52.526;13.390;2023-04-24T05:05:39;5.60;;;4.40;;
12253;SDS011;6189;52.526;13.390;2023-04-24T05:08:25;4.80;;;4.30;;
12253;SDS011;6189;52.526;13.390;2023-04-24T05:11:11;6.23;;;4.10;;
12253;SDS011;6189;52.526;13.390;2023-04-24T05:13:57;6.13;;;4.67;;
12253;SDS011;6189;52.526;13.390;2023-04-24T05:16:44;5.40;;;4.50;;
12253;SDS011;6189;52.526;13.390;2023-04-24T05:19:30;5.33;;;4.60;;
12253;SDS011;6189;52.526;13.390;2023-04-24T05:22:19;6.23;;;4.47;;
12253;SDS011;6189;52.526;13.390;2023-04-24T05:25:06;4.20;;;3.80;;
12253;SDS011;6189;52.526;13.390;2023-04-24T05:27:52;5.43;;;3.77;;
12253;SDS011;6189;52.526;13.390;2023-04-24T05:30:38;7.53;;;4.23;;
12253;SDS011;6189;52.526;13.390;2023-04-24T05:33:25;5.73;;;3.80;;
12253;SDS011;6189;52.526;13.390;2023-04-24T05:36:10;4.10;;;3.70;;
12253;SDS011;6189;52.526;13.390;2023-04-24T05:38:56;4.27;;;3.73;;
12253;SDS011;6189;52.526;13.390;2023-04-24T05:41:42;5.37;;;3.57;;
12253;SDS011;6189;52.526;13.390;2023-04-24T05:44:28;7.97;;;3.70;;
12253;SDS011;6189;52.526;13.390;2023-04-24T05:47:13;3.43;;;3.00;;
12253;SDS011;6189;52.526;13.390;2023-04-24T05:50:01;5.03;;;3.67;;
12253;SDS011;6189;52.526;13.390;2023-04-24T05:52:46;8.13;;;3.23;;
12253;SDS011;6189;52.526;13.390;2023-04-24T05:55:32;5.47;;;3.10;;
12253;SDS011;6189;52.526;13.390;2023-04-24T05:58:17;4.67;;;3.30;;
12253;SDS011;6189;52.526;13.390;2023-04-24T06:01:03;10.77;;;4.10;;
12253;SDS011;6189;52.526;13.390;2023-04-24T06:03:49;8.73;;;3.70;;
12253;SDS011;6189;52.526;13.390;2023-04-24T06:06:36;3.50;;;3.00;;
12253;SDS011;6189;52.526;13.390;2023-04-24T06:09:22;2.97;;;2.67;;
12253;SDS011;6189;52.526;13.390;2023-04-24T06:12:09;3.03;;;2.57;;
12253;SDS011;6189;52.526;13.390;2023-04-24T06:15:09;3.63;;;2.57;;
12253;SDS011;6189;52.526;13.390;2023-04-24T06:17:55;4.47;;;2.53;;
12253;SDS011;6189;52.526;13.390;2023-04-24T06:20:41;2.90;;;2.37;;
12253;SDS011;6189;52.526;13.390;2023-04-24T06:23:29;3.07;;;2.40;;
12253;SDS011;6189;52.526;13.390;2023-04-24T06:26:16;3.67;;;2.47;;
12253;SDS011;6189;52.526;13.390;2023-04-24T06:29:02;3.40;;;2.43;;
12253;SDS011;6189;52.526;13.390;2023-04-24T06:31:47;2.50;;;2.30;;
12253;SDS011;6189;52.526;13.390;2023-04-24T06:34:33;2.53;;;2.20;;
12253;SDS011;6189;52.526;13.390;2023-04-24T06:37:20;3.37;;;2.30;;
12253;SDS011;6189;52.526;13.390;2023-04-24T06:40:08;2.20;;;2.00;;
12253;SDS011;6189;52.526;13.390;2023-04-24T06:42:55;3.30;;;1.60;;
12253;SDS011;6189;52.526;13.390;2023-04-24T06:45:41;3.77;;;2.20;;
12253;SDS011;6189;52.526;13.390;2023-04-24T06:48:27;4.63;;;2.13;;
12253;SDS011;6189;52.526;13.390;2023-04-24T06:51:14;4.13;;;2.40;;
12253;SDS011;6189;52.526;13.390;2023-04-24T06:53:59;4.10;;;2.30;;
12253;SDS011;6189;52.526;13.390;2023-04-24T06:56:46;3.47;;;1.67;;
12253;SDS011;6189;52.526;13.390;2023-04-24T06:59:33;2.43;;;2.07;;
12253;SDS011;6189;52.526;13.390;2023-04-24T07:02:19;2.53;;;2.00;;
12253;SDS011;6189;52.526;13.390;2023-04-24T07:05:04;3.40;;;2.00;;
12253;SDS011;6189;52.526;13.390;2023-04-24T07:07:52;3.90;;;1.63;;
12253;SDS011;6189;52.526;13.390;2023-04-24T07:10:38;4.30;;;1.93;;
12253;SDS011;6189;52.526;13.390;2023-04-24T07:13:25;3.33;;;1.50;;
12253;SDS011;6189;52.526;13.390;2023-04-24T07:16:11;3.13;;;1.70;;
12253;SDS011;6189;52.526;13.390;2023-04-24T07:18:56;5.53;;;1.70;;
12253;SDS011;6189;52.526;13.390;2023-04-24T07:21:42;2.37;;;1.50;;
12253;SDS011;6189;52.526;13.390;2023-04-24T07:24:28;2.53;;;1.47;;
12253;SDS011;6189;52.526;13.390;2023-04-24T07:27:15;1.63;;;1.23;;
12253;SDS011;6189;52.526;13.390;2023-04-24T07:30:03;1.70;;;1.17;;
12253;SDS011;6189;52.526;13.390;2023-04-24T07:32:49;1.63;;;1.27;;
12253;SDS011;6189;52.526;13.390;2023-04-24T07:35:35;2.40;;;1.20;;
12253;SDS011;6189;52.526;13.390;2023-04-24T07:38:21;1.20;;;1.10;;
12253;SDS011;6189;52.526;13.390;2023-04-24T07:41:06;2.20;;;1.33;;
12253;SDS011;6189;52.526;13.390;2023-04-24T07:43:52;2.50;;;0.80;;
12253;SDS011;6189;52.526;13.390;2023-04-24T07:46:39;2.53;;;1.47;;
12253;SDS011;6189;52.526;13.390;2023-04-24T07:49:25;2.40;;;1.30;;
12253;SDS011;6189;52.526;13.390;2023-04-24T07:52:11;3.23;;;1.30;;
12253;SDS011;6189;52.526;13.390;2023-04-24T07:54:56;1.47;;;1.00;;
12253;SDS011;6189;52.526;13.390;2023-04-24T07:57:44;1.40;;;1.00;;
12253;SDS011;6189;52.526;13.390;2023-04-24T08:00:29;2.63;;;1.43;;
12253;SDS011;6189;52.526;13.390;2023-04-24T08:03:16;1.73;;;1.27;;
12253;SDS011;6189;52.526;13.390;2023-04-24T08:06:03;1.10;;;1.00;;
12253;SDS011;6189;52.526;13.390;2023-04-24T08:08:49;1.60;;;1.00;;
12253;SDS011;6189;52.526;13.390;2023-04-24T08:11:35;3.90;;;1.20;;
12253;SDS011;6189;52.526;13.390;2023-04-24T08:14:20;1.57;;;1.10;;
12253;SDS011;6189;52.526;13.390;2023-04-24T08:17:06;0.93;;;0.87;;
12253;SDS011;6189;52.526;13.390;2023-04-24T08:19:53;1.30;;;0.97;;
12253;SDS011;6189;52.526;13.390;2023-04-24T08:22:44;1.20;;;1.00;;
12253;SDS011;6189;52.526;13.390;2023-04-24T08:25:32;2.73;;;1.30;;
12253;SDS011;6189;52.526;13.390;2023-04-24T08:28:19;2.17;;;1.10;;
12253;SDS011;6189;52.526;13.390;2023-04-24T08:31:05;3.37;;;1.70;;
12253;SDS011;6189;52.526;13.390;2023-04-24T08:33:50;1.97;;;1.43;;
12253;SDS011;6189;52.526;13.390;2023-04-24T08:36:37;2.63;;;1.00;;
12253;SDS011;6189;52.526;13.390;2023-04-24T08:39:24;1.50;;;1.10;;
12253;SDS011;6189;52.526;13.390;2023-04-24T08:42:10;1.07;;;0.97;;
12253;SDS011;6189;52.526;13.390;2023-04-24T08:44:57;1.17;;;1.03;;
12253;SDS011;6189;52.526;13.390;2023-04-24T08:47:43;1.03;;;0.90;;
12253;SDS011;6189;52.526;13.390;2023-04-24T08:50:29;1.97;;;1.50;;
12253;SDS011;6189;52.526;13.390;2023-04-24T08:53:16;0.80;;;0.80;;
12253;SDS011;6189;52.526;13.390;2023-04-24T08:56:03;1.07;;;0.90;;
12253;SDS011;6189;52.526;13.390;2023-04-24T08:58:50;1.27;;;0.80;;
12253;SDS011;6189;52.526;13.390;2023-04-24T09:01:36;5.67;;;1.00;;
12253;SDS011;6189;52.526;13.390;2023-04-24T09:04:23;5.17;;;2.37;;
12253;SDS011;6189;52.526;13.390;2023-04-24T09:07:10;1.83;;;1.00;;
12253;SDS011;6189;52.526;13.390;2023-04-24T09:09:58;1.00;;;0.90;;
12253;SDS011;6189;52.526;13.390;2023-04-24T09:12:45;2.43;;;2.00;;
12253;SDS011;6189;52.526;13.390;2023-04-24T09:15:31;2.77;;;1.67;;
12253;SDS011;6189;52.526;13.390;2023-04-24T09:18:17;1.90;;;1.37;;
12253;SDS011;6189;52.526;13.390;2023-04-24T09:21:06;1.20;;;1.10;;
12253;SDS011;6189;52.526;13.390;2023-04-24T09:23:59;2.13;;;1.13;;
12253;SDS011;6189;52.526;13.390;2023-04-24T09:26:47;1.40;;;1.20;;
12253;SDS011;6189;52.526;13.390;2023-04-24T09:29:34;2.23;;;1.30;;
12253;SDS011;6189;52.526;13.390;2023-04-24T09:32:20;1.10;;;1.00;;
12253;SDS011;6189;52.526;13.390;2023-04-24T09:35:10;1.70;;;1.10;;
12253;SDS011;6189;52.526;13.390;2023-04-24T09:37:57;4.73;;;1.70;;
12253;SDS011;6189;52.526;13.390;2023-04-24T09:40:44;2.23;;;1.33;;
12253;SDS011;6189;52.526;13.390;2023-04-24T09:43:31;2.53;;;1.30;;
12253;SDS011;6189;52.526;13.390;2023-04-24T09:46:18;4.20;;;1.73;;
12253;SDS011;6189;52.526;13.390;2023-04-24T09:49:07;6.20;;;1.70;;
12253;SDS011;6189;52.526;13.390;2023-04-24T09:52:02;3.07;;;1.67;;
12253;SDS011;6189;52.526;13.390;2023-04-24T09:54:52;1.93;;;1.47;;
12253;SDS011;6189;52.526;13.390;2023-04-24T09:57:46;4.77;;;1.90;;
12253;SDS011;6189;52.526;13.390;2023-04-24T10:00:34;3.37;;;1.70;;
12253;SDS011;6189;52.526;13.390;2023-04-24T10:03:20;2.80;;;1.63;;
12253;SDS011;6189;52.526;13.390;2023-04-24T10:06:06;2.77;;;1.40;;
12253;SDS011;6189;52.526;13.390;2023-04-24T10:08:52;1.50;;;1.30;;
12253;SDS011;6189;52.526;13.390;2023-04-24T10:11:43;1.70;;;1.43;;
12253;SDS011;6189;52.526;13.390;2023-04-24T10:14:31;4.40;;;1.63;;
12253;SDS011;6189;52.526;13.390;2023-04-24T10:17:18;4.70;;;1.97;;
12253;SDS011;6189;52.526;13.390;2023-04-24T10:20:05;4.50;;;1.90;;
12253;SDS011;6189;52.526;13.390;2023-04-24T10:22:52;3.57;;;1.27;;
12253;SDS011;6189;52.526;13.390;2023-04-24T10:25:38;2.73;;;1.57;;
12253;SDS011;6189;52.526;13.390;2023-04-24T10:28:24;4.47;;;1.40;;
12253;SDS011;6189;52.526;13.390;2023-04-24T10:31:12;2.23;;;1.27;;
12253;SDS011;6189;52.526;13.390;2023-04-24T10:33:59;2.30;;;1.40;;
12253;SDS011;6189;52.526;13.390;2023-04-24T10:36:48;2.93;;;1.57;;
12253;SDS011;6189;52.526;13.390;2023-04-24T10:39:36;2.13;;;1.20;;
12253;SDS011;6189;52.526;13.390;2023-04-24T10:42:24;1.63;;;1.00;;
12253;SDS011;6189;52.526;13.390;2023-04-24T10:45:16;3.43;;;1.60;;
12253;SDS011;6189;52.526;13.390;2023-04-24T10:48:04;3.50;;;1.40;;
12253;SDS011;6189;52.526;13.390;2023-04-24T10:50:55;2.33;;;1.30;;
12253;SDS011;6189;52.526;13.390;2023-04-24T10:53:41;2.93;;;1.47;;
12253;SDS011;6189;52.526;13.390;2023-04-24T10:56:26;2.20;;;1.30;;
12253;SDS011;6189;52.526;13.390;2023-04-24T10:59:13;4.13;;;1.37;;
12253;SDS011;6189;52.526;13.390;2023-04-24T11:02:09;2.33;;;1.40;;
12253;SDS011;6189;52.526;13.390;2023-04-24T11:04:55;3.60;;;1.23;;
12253;SDS011;6189;52.526;13.390;2023-04-24T11:11:00;2.20;;;1.53;;
12253;SDS011;6189;52.526;13.390;2023-04-24T11:14:00;3.20;;;1.60;;
12253;SDS011;6189;52.526;13.390;2023-04-24T11:16:51;2.27;;;1.30;;
12253;SDS011;6189;52.526;13.390;2023-04-24T11:19:38;3.33;;;1.43;;
12253;SDS011;6189;52.526;13.390;2023-04-24T11:22:24;3.37;;;1.40;;
12253;SDS011;6189;52.526;13.390;2023-04-24T11:25:13;3.70;;;1.30;;
12253;SDS011;6189;52.526;13.390;2023-04-24T11:28:04;1.77;;;1.17;;
12253;SDS011;6189;52.526;13.390;2023-04-24T11:30:51;2.27;;;1.40;;
12253;SDS011;6189;52.526;13.390;2023-04-24T11:33:36;2.67;;;1.50;;
12253;SDS011;6189;52.526;13.390;2023-04-24T11:36:22;2.10;;;1.33;;
12253;SDS011;6189;52.526;13.390;2023-04-24T11:39:08;5.77;;;1.80;;
12253;SDS011;6189;52.526;13.390;2023-04-24T11:42:02;4.03;;;1.50;;
12253;SDS011;6189;52.526;13.390;2023-04-24T11:44:51;4.00;;;1.40;;
12253;SDS011;6189;52.526;13.390;2023-04-24T11:47:38;2.73;;;1.57;;
12253;SDS011;6189;52.526;13.390;2023-04-24T11:50:25;3.17;;;1.50;;
12253;SDS011;6189;52.526;13.390;2023-04-24T11:53:13;11.63;;;2.23;;
12253;SDS011;6189;52.526;13.390;2023-04-24T11:56:02;2.07;;;1.30;;
12253;SDS011;6189;52.526;13.390;2023-04-24T11:58:51;2.73;;;1.10;;
12253;SDS011;6189;52.526;13.390;2023-04-24T12:01:42;5.10;;;1.30;;
12253;SDS011;6189;52.526;13.390;2023-04-24T12:04:37;3.30;;;1.23;;
12253;SDS011;6189;52.526;13.390;2023-04-24T12:07:23;4.53;;;1.20;;
12253;SDS011;6189;52.526;13.390;2023-04-24T12:10:09;3.13;;;1.33;;
12253;SDS011;6189;52.526;13.390;2023-04-24T12:12:55;2.50;;;1.20;;
12253;SDS011;6189;52.526;13.390;2023-04-24T12:15:43;2.20;;;1.40;;
12253;SDS011;6189;52.526;13.390;2023-04-24T12:18:29;2.73;;;1.50;;
12253;SDS011;6189;52.526;13.390;2023-04-24T12:21:15;3.90;;;1.30;;
12253;SDS011;6189;52.526;13.390;2023-04-24T12:24:05;1.60;;;1.20;;
12253;SDS011;6189;52.526;13.390;2023-04-24T12:26:51;2.03;;;1.27;;
12253;SDS011;6189;52.526;13.390;2023-04-24T12:29:38;2.90;;;1.30;;
12253;SDS011;6189;52.526;13.390;2023-04-24T12:32:41;1.87;;;1.33;;
12253;SDS011;6189;52.526;13.390;2023-04-24T12:35:28;1.40;;;1.30;;
12253;SDS011;6189;52.526;13.390;2023-04-24T12:38:21;3.73;;;1.30;;
12253;SDS011;6189;52.526;13.390;2023-04-24T12:41:08;2.23;;;1.30;;
12253;SDS011;6189;52.526;13.390;2023-04-24T12:43:55;3.33;;;1.70;;
12253;SDS011;6189;52.526;13.390;2023-04-24T12:46:40;6.13;;;1.70;;
12253;SDS011;6189;52.526;13.390;2023-04-24T12:49:29;3.90;;;1.60;;
12253;SDS011;6189;52.526;13.390;2023-04-24T12:52:15;2.90;;;1.53;;
12253;SDS011;6189;52.526;13.390;2023-04-24T12:55:01;1.30;;;1.20;;
12253;SDS011;6189;52.526;13.390;2023-04-24T12:57:46;3.00;;;1.40;;
12253;SDS011;6189;52.526;13.390;2023-04-24T13:00:32;2.33;;;1.20;;
12253;SDS011;6189;52.526;13.390;2023-04-24T13:03:18;1.30;;;1.20;;
12253;SDS011;6189;52.526;13.390;2023-04-24T13:06:07;1.97;;;1.20;;
12253;SDS011;6189;52.526;13.390;2023-04-24T13:08:53;4.13;;;1.40;;
12253;SDS011;6189;52.526;13.390;2023-04-24T13:11:41;7.40;;;1.70;;
12253;SDS011;6189;52.526;13.390;2023-04-24T13:14:27;4.47;;;1.53;;
12253;SDS011;6189;52.526;13.390;2023-04-24T13:17:13;5.10;;;1.10;;
12253;SDS011;6189;52.526;13.390;2023-04-24T13:19:59;1.63;;;1.27;;
12253;SDS011;6189;52.526;13.390;2023-04-24T13:22:46;2.10;;;1.40;;
12253;SDS011;6189;52.526;13.390;2023-04-24T13:25:35;2.13;;;1.50;;
12253;SDS011;6189;52.526;13.390;2023-04-24T13:28:22;1.70;;;1.40;;
12253;SDS011;6189;52.526;13.390;2023-04-24T13:31:08;1.60;;;1.30;;
12253;SDS011;6189;52.526;13.390;2023-04-24T13:33:54;1.50;;;1.30;;
12253;SDS011;6189;52.526;13.390;2023-04-24T13:36:40;1.80;;;1.23;;
12253;SDS011;6189;52.526;13.390;2023-04-24T13:39:27;1.20;;;1.10;;
12253;SDS011;6189;52.526;13.390;2023-04-24T13:42:12;1.43;;;1.00;;
12253;SDS011;6189;52.526;13.390;2023-04-24T13:44:58;1.13;;;1.03;;
12253;SDS011;6189;52.526;13.390;2023-04-24T13:47:43;1.63;;;1.13;;
12253;SDS011;6189;52.526;13.390;2023-04-24T13:50:29;2.03;;;1.40;;
12253;SDS011;6189;52.526;13.390;2023-04-24T13:53:15;1.30;;;1.20;;
12253;SDS011;6189;52.526;13.390;2023-04-24T13:56:02;1.87;;;1.50;;
12253;SDS011;6189;52.526;13.390;2023-04-24T13:58:48;1.63;;;1.10;;
12253;SDS011;6189;52.526;13.390;2023-04-24T14:01:34;4.83;;;1.30;;
12253;SDS011;6189;52.526;13.390;2023-04-24T14:04:20;4.00;;;1.50;;
12253;SDS011;6189;52.526;13.390;2023-04-24T14:07:05;3.80;;;1.50;;
12253;SDS011;6189;52.526;13.390;2023-04-24T14:09:51;3.50;;;1.50;;
12253;SDS011;6189;52.526;13.390;2023-04-24T14:12:39;1.40;;;1.30;;
12253;SDS011;6189;52.526;13.390;2023-04-24T14:15:25;2.43;;;1.70;;
12253;SDS011;6189;52.526;13.390;2023-04-24T14:18:10;3.83;;;1.57;;
12253;SDS011;6189;52.526;13.390;2023-04-24T14:20:56;3.37;;;1.33;;
12253;SDS011;6189;52.526;13.390;2023-04-24T14:23:42;2.27;;;1.90;;
12253;SDS011;6189;52.526;13.390;2023-04-24T14:26:28;4.50;;;2.33;;
12253;SDS011;6189;52.526;13.390;2023-04-24T14:29:15;1.77;;;1.43;;
12253;SDS011;6189;52.526;13.390;2023-04-24T14:32:01;1.10;;;1.00;;
12253;SDS011;6189;52.526;13.390;2023-04-24T14:34:47;2.17;;;1.37;;
12253;SDS011;6189;52.526;13.390;2023-04-24T14:37:33;1.73;;;1.20;;
12253;SDS011;6189;52.526;13.390;2023-04-24T14:40:19;1.80;;;1.20;;
12253;SDS011;6189;52.526;13.390;2023-04-24T14:43:05;2.47;;;2.27;;
12253;SDS011;6189;52.526;13.390;2023-04-24T14:45:52;3.07;;;2.57;;
12253;SDS011;6189;52.526;13.390;2023-04-24T14:48:38;3.13;;;2.33;;
12253;SDS011;6189;52.526;13.390;2023-04-24T14:51:23;4.10;;;3.13;;
12253;SDS011;6189;52.526;13.390;2023-04-24T14:54:10;2.53;;;1.90;;
12253;SDS011;6189;52.526;13.390;2023-04-24T14:56:57;4.60;;;2.10;;
12253;SDS011;6189;52.526;13.390;2023-04-24T14:59:44;1.47;;;1.37;;
12253;SDS011;6189;52.526;13.390;2023-04-24T15:02:32;2.00;;;1.40;;
12253;SDS011;6189;52.526;13.390;2023-04-24T15:05:18;1.93;;;1.40;;
12253;SDS011;6189;52.526;13.390;2023-04-24T15:08:04;1.63;;;1.50;;
12253;SDS011;6189;52.526;13.390;2023-04-24T15:10:49;2.03;;;1.83;;
12253;SDS011;6189;52.526;13.390;2023-04-24T15:13:35;2.70;;;1.60;;
12253;SDS011;6189;52.526;13.390;2023-04-24T15:16:20;2.47;;;1.80;;
12253;SDS011;6189;52.526;13.390;2023-04-24T15:19:08;2.37;;;2.10;;
12253;SDS011;6189;52.526;13.390;2023-04-24T15:21:54;3.97;;;2.70;;
12253;SDS011;6189;52.526;13.390;2023-04-24T15:24:39;2.97;;;2.33;;
12253;SDS011;6189;52.526;13.390;2023-04-24T15:27:25;2.67;;;2.20;;
12253;SDS011;6189;52.526;13.390;2023-04-24T15:30:11;1.30;;;1.20;;
12253;SDS011;6189;52.526;13.390;2023-04-24T15:32:57;2.17;;;1.50;;
12253;SDS011;6189;52.526;13.390;2023-04-24T15:35:45;1.70;;;1.50;;
12253;SDS011;6189;52.526;13.390;2023-04-24T15:38:32;1.50;;;1.40;;
12253;SDS011;6189;52.526;13.390;2023-04-24T15:41:18;2.10;;;1.60;;
12253;SDS011;6189;52.526;13.390;2023-04-24T15:44:03;1.97;;;1.77;;
12253;SDS011;6189;52.526;13.390;2023-04-24T15:46:49;3.37;;;1.77;;
12253;SDS011;6189;52.526;13.390;2023-04-24T15:49:36;1.97;;;1.57;;
12253;SDS011;6189;52.526;13.390;2023-04-24T15:52:24;2.23;;;1.70;;
12253;SDS011;6189;52.526;13.390;2023-04-24T15:55:10;2.90;;;1.87;;
12253;SDS011;6189;52.526;13.390;2023-04-24T15:57:56;3.50;;;2.13;;
12253;SDS011;6189;52.526;13.390;2023-04-24T16:00:42;7.77;;;5.20;;
12253;SDS011;6189;52.526;13.390;2023-04-24T16:03:28;7.07;;;4.40;;
12253;SDS011;6189;52.526;13.390;2023-04-24T16:06:14;3.27;;;2.10;;
12253;SDS011;6189;52.526;13.390;2023-04-24T16:09:01;2.57;;;1.73;;
12253;SDS011;6189;52.526;13.390;2023-04-24T16:11:47;1.90;;;1.70;;
12253;SDS011;6189;52.526;13.390;2023-04-24T16:14:33;2.57;;;1.80;;
12253;SDS011;6189;52.526;13.390;2023-04-24T16:17:19;2.63;;;2.23;;
12253;SDS011;6189;52.526;13.390;2023-04-24T16:20:05;2.70;;;2.50;;
12253;SDS011;6189;52.526;13.390;2023-04-24T16:22:51;3.80;;;2.73;;
12253;SDS011;6189;52.526;13.390;2023-04-24T16:25:38;2.57;;;2.00;;
12253;SDS011;6189;52.526;13.390;2023-04-24T16:28:24;2.67;;;1.50;;
12253;SDS011;6189;52.526;13.390;2023-04-24T16:31:11;1.63;;;1.33;;
12253;SDS011;6189;52.526;13.390;2023-04-24T16:33:57;1.97;;;1.40;;
12253;SDS011;6189;52.526;13.390;2023-04-24T16:36:42;1.70;;;1.43;;
12253;SDS011;6189;52.526;13.390;2023-04-24T16:39:28;2.00;;;1.80;;
12253;SDS011;6189;52.526;13.390;2023-04-24T16:42:16;2.70;;;1.60;;
12253;SDS011;6189;52.526;13.390;2023-04-24T16:45:01;1.70;;;1.30;;
12253;SDS011;6189;52.526;13.390;2023-04-24T16:47:47;1.40;;;1.30;;